Time;durP1;ratioP1;P1;durP2;ratioP2;P2;SDS_P1;SDS_P2;PMS_P1;PMS_P2;Temp;Humidity;BMP_temperature;BMP_pressure;BME280_temperature;BME280_humidity;BME280_pressure;Samples;Min_cycle;Max_cycle;Signal;HPM_P1;HPM_P2
2022/03/25 00:00:23;;;;;;;;;;;;;;;10.25;34.48;93526.66;2055191;69;20082;-75
2022/03/25 00:02:49;;;;;;;;;;;;;;;10.28;34.18;93528.31;2055431;70;20493;-75
2022/03/25 00:05:14;;;;;;;;;;;;;;;10.14;34.71;93525.13;2068493;69;20058;-74
2022/03/25 00:07:40;;;;;;;;;;;;;;;9.30;37.09;93532.81;2068311;69;20058;-74
2022/03/25 00:10:06;;;;;;;;;;;;;;;9.60;36.94;93533.69;2068434;69;20042;-76
2022/03/25 00:12:31;;;;;;;;;;;;;;;9.30;37.40;93532.81;2055292;70;20054;-75
2022/03/25 00:14:57;;;;;;;;;;;;;;;9.48;36.71;93530.66;2055317;69;20151;-76
2022/03/25 00:17:22;;;;;;;;;;;;;;;9.25;37.58;93533.03;2068356;69;20594;-76
2022/03/25 00:19:48;;;;;;;;;;;;;;;9.26;37.17;93529.66;2065563;69;20131;-76
2022/03/25 00:22:13;;;;;;;;;;;;;;;9.50;35.91;93530.81;2055442;70;20074;-76
2022/03/25 00:24:39;;;;;;;;;;;;;;;9.09;38.13;93526.91;2065666;69;20043;-76
2022/03/25 00:27:04;;;;;;;;;;;;;;;9.22;37.30;93529.34;2068444;69;20090;-74
2022/03/25 00:29:30;;;;;;;;;;;;;;;9.01;38.73;93529.06;2065545;69;20069;-76
2022/03/25 00:31:55;;;;;;;;;;;;;;;9.14;37.77;93529.44;2068380;69;20176;-75
2022/03/25 00:34:21;;;;;;;;;;;;;;;9.29;35.76;93531.28;2055347;69;20139;-75
2022/03/25 00:36:46;;;;;;;;;;;;;;;9.01;38.13;93531.88;2065546;69;20518;-75
2022/03/25 00:39:12;;;;;;;;;;;;;;;9.13;36.69;93518.78;2055389;70;20090;-75
2022/03/25 00:41:37;;;;;;;;;;;;;;;8.94;37.89;93527.84;2065619;69;20099;-76
2022/03/25 00:44:07;;;;;;;;;;;;;;;8.99;38.22;93526.84;2065424;69;20166;-74
2022/03/25 00:46:35;;;;;;;;;;;;;;;9.21;36.56;93525.06;2068468;69;20082;-77
2022/03/25 00:49:01;;;;;;;;;;;;;;;8.91;37.89;93524.13;2068214;69;20205;-76
2022/03/25 00:51:28;;;;;;;;;;;;;;;9.01;37.35;93515.00;2065653;69;20157;-74
2022/03/25 00:53:53;;;;;;;;;;;;;;;8.61;38.85;93518.84;2068458;69;20062;-74
2022/03/25 00:56:19;;;;;;;;;;;;;;;8.58;38.63;93517.97;2055158;69;20061;-74
2022/03/25 00:58:44;;;;;;;;;;;;;;;8.78;37.75;93513.22;2055225;69;20647;-74
2022/03/25 01:01:10;;;;;;;;;;;;;;;9.03;36.60;93521.53;2068455;69;20055;-77
2022/03/25 01:03:35;;;;;;;;;;;;;;;8.83;38.00;93523.47;2068316;69;20046;-76
2022/03/25 01:06:01;;;;;;;;;;;;;;;8.57;39.03;93519.28;2055328;70;20058;-74
2022/03/25 01:08:27;;;;;;;;;;;;;;;8.41;39.45;93512.34;2055282;70;20122;-75
2022/03/25 01:10:53;;;;;;;;;;;;;;;8.55;37.39;93513.50;2055261;70;20191;-75
2022/03/25 01:13:20;;;;;;;;;;;;;;;8.58;39.03;93506.00;2068013;69;20058;-74
2022/03/25 01:15:46;;;;;;;;;;;;;;;8.53;38.81;93507.00;2065368;69;20062;-75
2022/03/25 01:18:11;;;;;;;;;;;;;;;7.41;42.41;93504.03;2055510;69;20051;-74
2022/03/25 01:20:37;;;;;;;;;;;;;;;8.08;39.80;93509.66;2068468;69;20070;-76
2022/03/25 01:23:06;;;;;;;;;;;;;;;8.01;40.57;93507.66;2069891;69;20053;-75
2022/03/25 01:25:32;;;;;;;;;;;;;;;8.03;40.77;93518.31;2069608;69;20061;-76
2022/03/25 01:27:58;;;;;;;;;;;;;;;8.17;39.70;93511.06;2067328;69;20054;-77
2022/03/25 01:30:24;;;;;;;;;;;;;;;8.18;39.41;93514.63;2068834;69;20050;-77
2022/03/25 01:32:50;;;;;;;;;;;;;;;8.19;38.99;93508.44;2055825;69;20063;-78
2022/03/25 01:35:16;;;;;;;;;;;;;;;8.29;39.06;93517.69;2068611;69;20498;-78
2022/03/25 01:37:41;;;;;;;;;;;;;;;8.17;39.09;93519.50;2068597;69;20172;-78
2022/03/25 01:40:09;;;;;;;;;;;;;;;8.12;38.31;93506.47;2055632;70;20173;-78
2022/03/25 01:42:36;;;;;;;;;;;;;;;8.39;38.07;93512.19;2068615;69;20137;-78
2022/03/25 01:45:03;;;;;;;;;;;;;;;8.26;38.53;93520.91;2068440;69;20061;-76
2022/03/25 01:47:31;;;;;;;;;;;;;;;8.09;39.50;93516.75;2055564;70;20066;-77
2022/03/25 01:49:57;;;;;;;;;;;;;;;7.95;39.96;93512.78;2065812;69;20145;-77
2022/03/25 01:52:24;;;;;;;;;;;;;;;7.93;39.71;93514.69;2068552;69;20077;-78
2022/03/25 01:54:50;;;;;;;;;;;;;;;7.73;40.57;93508.09;2055545;70;20430;-77
2022/03/25 01:57:18;;;;;;;;;;;;;;;7.81;40.94;93506.72;2068497;69;20406;-78
2022/03/25 01:59:44;;;;;;;;;;;;;;;7.93;38.91;93509.06;2068374;69;20133;-77
2022/03/25 02:02:09;;;;;;;;;;;;;;;7.81;40.03;93501.13;2068646;69;20137;-78
2022/03/25 02:04:35;;;;;;;;;;;;;;;7.54;41.57;93503.75;2055579;69;20056;-77
2022/03/25 02:07:02;;;;;;;;;;;;;;;7.51;40.87;93502.09;2055510;70;20551;-78
2022/03/25 02:09:28;;;;;;;;;;;;;;;7.47;41.92;93496.19;2068512;69;20069;-77
2022/03/25 02:11:56;;;;;;;;;;;;;;;7.38;43.02;93503.16;2068442;69;20082;-78
2022/03/25 02:14:22;;;;;;;;;;;;;;;7.55;40.78;93501.72;2068254;69;20123;-75
2022/03/25 02:16:48;;;;;;;;;;;;;;;7.86;40.06;93502.19;2068454;69;20062;-77
2022/03/25 02:19:16;;;;;;;;;;;;;;;7.56;41.64;93503.97;2055983;69;20428;-74
2022/03/25 02:21:42;;;;;;;;;;;;;;;7.71;39.92;93508.69;2056640;69;20094;-75
2022/03/25 02:24:11;;;;;;;;;;;;;;;7.51;41.54;93501.34;2066845;69;20046;-76
2022/03/25 02:26:37;;;;;;;;;;;;;;;7.38;41.04;93505.94;2069533;69;20078;-76
2022/03/25 02:29:07;;;;;;;;;;;;;;;7.40;41.38;93505.38;2069414;69;20057;-75
2022/03/25 02:31:33;;;;;;;;;;;;;;;7.36;40.36;93507.81;2069510;69;20511;-75
2022/03/25 02:34:04;;;;;;;;;;;;;;;7.46;41.03;93505.88;2069513;69;20093;-78
2022/03/25 02:36:36;;;;;;;;;;;;;;;7.34;41.22;93507.66;2056516;70;20057;-76
2022/03/25 02:39:01;;;;;;;;;;;;;;;7.45;41.03;93510.00;2069585;69;20060;-77
2022/03/25 02:41:27;;;;;;;;;;;;;;;7.21;41.74;93508.66;2056585;69;20069;-77
2022/03/25 02:43:53;;;;;;;;;;;;;;;7.36;41.23;93499.41;2069436;69;20050;-78
2022/03/25 02:46:19;;;;;;;;;;;;;;;7.24;41.73;93501.19;2069529;69;20556;-77
2022/03/25 02:48:44;;;;;;;;;;;;;;;7.07;42.98;93502.59;2056537;70;20058;-75
2022/03/25 02:51:10;;;;;;;;;;;;;;;7.13;41.83;93500.31;2069505;69;20165;-77
2022/03/25 02:53:36;;;;;;;;;;;;;;;7.03;42.00;93502.25;2069526;69;20054;-77
2022/03/25 02:56:01;;;;;;;;;;;;;;;7.07;42.48;93504.66;2069492;69;20054;-77
2022/03/25 02:58:27;;;;;;;;;;;;;;;6.78;43.56;93509.84;2069456;69;20153;-75
2022/03/25 03:00:52;;;;;;;;;;;;;;;6.63;44.53;93513.44;2069393;69;20042;-77
2022/03/25 03:03:19;;;;;;;;;;;;;;;6.81;42.94;93508.72;2056451;70;20086;-75
2022/03/25 03:05:44;;;;;;;;;;;;;;;6.63;43.89;93505.03;2069515;69;20098;-76
2022/03/25 03:08:10;;;;;;;;;;;;;;;6.62;43.15;93506.38;2056685;70;20150;-77
2022/03/25 03:10:35;;;;;;;;;;;;;;;6.69;41.44;93507.63;2066682;69;20049;-77
2022/03/25 03:13:02;;;;;;;;;;;;;;;6.62;43.74;93507.09;2066559;69;20504;-77
2022/03/25 03:15:28;;;;;;;;;;;;;;;6.73;43.41;93510.78;2056292;69;20074;-77
2022/03/25 03:17:54;;;;;;;;;;;;;;;6.76;42.46;93512.47;2066597;69;20047;-74
2022/03/25 03:20:20;;;;;;;;;;;;;;;6.72;42.44;93512.09;2056418;70;20092;-74
2022/03/25 03:22:46;;;;;;;;;;;;;;;6.90;41.74;93512.94;2069436;69;20054;-75
2022/03/25 03:25:11;;;;;;;;;;;;;;;6.37;43.97;93514.69;2069465;69;20082;-75
2022/03/25 03:27:37;;;;;;;;;;;;;;;6.59;43.06;93527.06;2056398;70;20525;-75
2022/03/25 03:30:04;;;;;;;;;;;;;;;6.51;43.73;93512.38;2056168;70;20058;-75
2022/03/25 03:32:29;;;;;;;;;;;;;;;6.49;43.41;93515.00;2055824;70;20049;-75
2022/03/25 03:34:56;;;;;;;;;;;;;;;6.39;43.98;93512.03;2055834;69;20046;-76
2022/03/25 03:37:21;;;;;;;;;;;;;;;6.76;41.89;93515.25;2055794;70;20147;-77
2022/03/25 03:39:47;;;;;;;;;;;;;;;6.48;44.04;93517.06;2055835;69;20078;-77
2022/03/25 03:42:14;;;;;;;;;;;;;;;6.30;44.54;93512.63;2068860;69;20472;-77
2022/03/25 03:44:40;;;;;;;;;;;;;;;6.30;44.48;93512.63;2055736;69;20076;-77
2022/03/25 03:47:06;;;;;;;;;;;;;;;6.44;43.45;93510.34;2066053;69;20078;-78
2022/03/25 03:49:32;;;;;;;;;;;;;;;6.25;44.12;93505.94;2068771;69;20141;-76
2022/03/25 03:51:58;;;;;;;;;;;;;;;6.30;43.84;93509.84;2068796;69;20525;-76
2022/03/25 03:54:23;;;;;;;;;;;;;;;6.27;44.49;93502.56;2055782;70;20479;-75
2022/03/25 03:57:08;;;;;;;;;;;;;;;6.31;44.30;93503.66;2055766;69;20143;-74
2022/03/25 03:59:34;;;;;;;;;;;;;;;6.35;43.16;93509.63;2055649;69;20062;-75
2022/03/25 04:01:59;;;;;;;;;;;;;;;6.29;44.25;93503.50;2068770;69;20134;-74
2022/03/25 04:04:25;;;;;;;;;;;;;;;6.29;43.20;93509.09;2068924;69;20051;-77
2022/03/25 04:06:50;;;;;;;;;;;;;;;6.18;43.42;93503.88;2068772;69;20476;-75
2022/03/25 04:09:16;;;;;;;;;;;;;;;6.13;44.44;93506.88;2055908;70;20043;-76
2022/03/25 04:11:41;;;;;;;;;;;;;;;6.05;45.09;93504.88;2055922;70;20050;-76
2022/03/25 04:14:06;;;;;;;;;;;;;;;6.02;45.32;93502.44;2069869;69;20487;-77
2022/03/25 04:16:32;;;;;;;;;;;;;;;6.35;42.19;93500.50;2055822;70;20494;-77
2022/03/25 04:18:57;;;;;;;;;;;;;;;6.24;44.38;93498.13;2055789;70;20054;-77
2022/03/25 04:21:23;;;;;;;;;;;;;;;6.11;43.69;93507.47;2055925;70;20050;-78
2022/03/25 04:23:48;;;;;;;;;;;;;;;6.10;43.68;93500.38;2055769;70;20483;-74
2022/03/25 04:26:14;;;;;;;;;;;;;;;6.16;42.83;93506.50;2055756;70;20056;-77
2022/03/25 04:28:40;;;;;;;;;;;;;;;6.22;43.44;93509.09;2055863;70;20058;-77
2022/03/25 04:31:06;;;;;;;;;;;;;;;6.11;43.47;93510.25;2055640;70;20055;-77
2022/03/25 04:33:34;;;;;;;;;;;;;;;6.12;43.36;93511.75;2055786;70;20141;-76
2022/03/25 04:36:00;;;;;;;;;;;;;;;6.30;41.51;93507.78;2055809;70;20127;-77
2022/03/25 04:38:25;;;;;;;;;;;;;;;6.05;43.50;93496.47;2055762;70;20054;-75
2022/03/25 04:40:50;;;;;;;;;;;;;;;5.93;44.41;93509.34;2055944;70;20426;-77
2022/03/25 04:43:16;;;;;;;;;;;;;;;5.90;44.97;93501.31;2055628;70;20060;-77
2022/03/25 04:45:41;;;;;;;;;;;;;;;6.05;44.80;93510.47;2055671;70;20047;-77
2022/03/25 04:48:10;;;;;;;;;;;;;;;5.85;45.23;93512.13;2068861;69;20449;-77
2022/03/25 04:50:36;;;;;;;;;;;;;;;5.82;45.22;93507.69;2055759;70;20046;-77
2022/03/25 04:53:02;;;;;;;;;;;;;;;5.81;44.38;93506.16;2055895;70;20430;-78
2022/03/25 04:55:27;;;;;;;;;;;;;;;5.77;44.43;93517.00;2068779;69;20097;-78
2022/03/25 04:57:53;;;;;;;;;;;;;;;5.90;44.25;93507.66;2055723;69;20058;-78
2022/03/25 05:00:18;;;;;;;;;;;;;;;5.83;44.52;93506.38;2068625;69;20484;-75
2022/03/25 05:02:44;;;;;;;;;;;;;;;5.84;43.97;93515.50;2055786;69;20047;-75
2022/03/25 05:05:10;;;;;;;;;;;;;;;5.68;44.93;93516.78;2068789;69;20059;-77
2022/03/25 05:07:39;;;;;;;;;;;;;;;5.67;45.82;93527.22;2055925;69;20405;-76
2022/03/25 05:10:05;;;;;;;;;;;;;;;5.48;45.96;93529.66;2055746;69;20042;-74
2022/03/25 05:12:30;;;;;;;;;;;;;;;5.41;46.64;93530.41;2055861;70;20144;-76
2022/03/25 05:14:56;;;;;;;;;;;;;;;5.51;46.44;93531.34;2055780;70;20203;-78
2022/03/25 05:17:21;;;;;;;;;;;;;;;5.45;46.07;93536.34;2068644;69;20054;-78
2022/03/25 05:19:47;;;;;;;;;;;;;;;5.51;46.20;93531.34;2055797;70;20074;-77
2022/03/25 05:22:14;;;;;;;;;;;;;;;5.43;45.86;93530.59;2055703;69;20053;-78
2022/03/25 05:24:39;;;;;;;;;;;;;;;5.39;46.26;93538.59;2068803;69;20046;-78
2022/03/25 05:27:05;;;;;;;;;;;;;;;5.50;45.89;93532.66;2055704;70;20050;-76
2022/03/25 05:29:30;;;;;;;;;;;;;;;5.54;45.88;93539.34;2055746;70;20150;-74
2022/03/25 05:31:56;;;;;;;;;;;;;;;5.47;47.21;93542.88;2068630;69;20426;-78
2022/03/25 05:34:21;;;;;;;;;;;;;;;5.35;46.88;93545.28;2055665;70;20057;-77
2022/03/25 05:36:47;;;;;;;;;;;;;;;5.60;43.98;93547.53;2068506;69;20117;-77
2022/03/25 05:39:14;;;;;;;;;;;;;;;5.46;46.35;93549.78;2068590;69;20057;-76
2022/03/25 05:41:43;;;;;;;;;;;;;;;5.47;46.47;93545.66;2055710;70;20054;-77
2022/03/25 05:44:08;;;;;;;;;;;;;;;5.63;45.16;93554.03;2068506;69;20073;-77
2022/03/25 05:46:38;;;;;;;;;;;;;;;5.23;47.72;93549.00;2055572;70;20475;-77
2022/03/25 05:49:04;;;;;;;;;;;;;;;5.40;46.14;93556.81;2068627;69;20054;-78
2022/03/25 05:51:29;;;;;;;;;;;;;;;5.16;48.16;93558.09;2068611;69;20047;-78
2022/03/25 05:53:55;;;;;;;;;;;;;;;5.32;47.87;93562.41;2068681;69;20086;-78
2022/03/25 05:56:20;;;;;;;;;;;;;;;5.14;47.86;93552.31;2055791;70;20414;-78
2022/03/25 05:58:46;;;;;;;;;;;;;;;5.42;46.83;93554.97;2055633;69;20142;-78
2022/03/25 06:01:13;;;;;;;;;;;;;;;5.42;46.84;93557.75;2055671;70;20050;-77
2022/03/25 06:03:38;;;;;;;;;;;;;;;5.38;46.86;93553.84;2055653;70;20518;-77
2022/03/25 06:06:05;;;;;;;;;;;;;;;5.48;46.60;93561.13;2055604;70;20065;-78
2022/03/25 06:08:30;;;;;;;;;;;;;;;5.37;47.56;93553.09;2068543;69;20051;-79
2022/03/25 06:10:56;;;;;;;;;;;;;;;5.42;47.59;93562.59;2055613;70;20103;-77
2022/03/25 06:13:22;;;;;;;;;;;;;;;5.50;46.78;93555.00;2055580;70;20054;-77
2022/03/25 06:15:47;;;;;;;;;;;;;;;5.48;46.76;93563.91;2055392;70;20062;-78
2022/03/25 06:18:13;;;;;;;;;;;;;;;5.46;47.10;93555.34;2055572;69;20123;-75
2022/03/25 06:20:38;;;;;;;;;;;;;;;5.43;47.60;93556.47;2068495;69;20050;-76
2022/03/25 06:23:05;;;;;;;;;;;;;;;5.45;47.49;93555.88;2065689;69;20046;-78
2022/03/25 06:25:31;;;;;;;;;;;;;;;5.45;47.55;93559.47;2068592;69;20479;-77
2022/03/25 06:27:58;;;;;;;;;;;;;;;5.47;47.36;93550.50;2055511;70;20055;-79
2022/03/25 06:30:25;;;;;;;;;;;;;;;5.49;46.72;93559.81;2065607;69;20514;-79
2022/03/25 06:32:50;;;;;;;;;;;;;;;5.43;46.95;93562.03;2068498;69;20145;-77
2022/03/25 06:35:16;;;;;;;;;;;;;;;5.49;46.61;93564.66;2055689;70;20120;-77
2022/03/25 06:37:42;;;;;;;;;;;;;;;5.11;49.33;93565.34;2055534;70;20130;-76
2022/03/25 06:40:08;;;;;;;;;;;;;;;5.34;48.53;93566.13;2068477;69;20070;-78
2022/03/25 06:42:40;;;;;;;;;;;;;;;5.31;48.89;93572.06;2055434;70;20062;-76
2022/03/25 06:45:07;;;;;;;;;;;;;;;5.31;48.88;93564.47;2055399;70;20065;-78
2022/03/25 06:47:34;;;;;;;;;;;;;;;5.41;48.24;93575.09;2055444;70;20055;-77
2022/03/25 06:50:00;;;;;;;;;;;;;;;5.50;47.24;93566.16;2068594;69;20057;-78
2022/03/25 06:52:26;;;;;;;;;;;;;;;5.60;46.96;93567.09;2055544;70;20145;-76
2022/03/25 06:54:51;;;;;;;;;;;;;;;5.46;48.35;93560.19;2068470;69;20145;-75
2022/03/25 06:57:17;;;;;;;;;;;;;;;5.38;48.03;93567.81;2055435;70;20080;-74
2022/03/25 06:59:43;;;;;;;;;;;;;;;5.32;49.52;93570.78;2065520;69;20042;-79
2022/03/25 07:02:09;;;;;;;;;;;;;;;5.38;49.25;93560.19;2055535;70;20062;-80
2022/03/25 07:04:35;;;;;;;;;;;;;;;5.52;48.02;93560.75;2055407;70;20055;-76
2022/03/25 07:07:02;;;;;;;;;;;;;;;5.73;47.20;93557.78;2055807;69;20046;-75
2022/03/25 07:09:29;;;;;;;;;;;;;;;5.74;47.52;93554.44;2056306;69;20078;-75
2022/03/25 07:11:55;;;;;;;;;;;;;;;5.78;47.56;93557.59;2055852;70;20569;-75
2022/03/25 07:14:21;;;;;;;;;;;;;;;5.74;47.48;93550.91;2055903;69;20137;-77
2022/03/25 07:16:46;;;;;;;;;;;;;;;5.84;45.69;93549.75;2055931;70;20052;-79
2022/03/25 07:19:12;;;;;;;;;;;;;;;5.70;48.29;93551.25;2066305;69;20054;-77
2022/03/25 07:21:38;;;;;;;;;;;;;;;5.73;48.64;93544.56;2055897;70;20591;-79
2022/03/25 07:24:03;;;;;;;;;;;;;;;5.59;48.26;93535.63;2055909;70;20097;-75
2022/03/25 07:26:30;;;;;;;;;;;;;;;5.91;47.00;93551.09;2068753;69;20054;-78
2022/03/25 07:28:56;;;;;;;;;;;;;;;6.18;46.26;93545.09;2055725;69;20449;-76
2022/03/25 07:31:21;;;;;;;;;;;;;;;6.77;43.96;93544.72;2056009;70;20061;-79
2022/03/25 07:33:46;;;;;;;;;;;;;;;7.36;43.31;93541.44;2055966;70;20048;-80
2022/03/25 07:36:12;;;;;;;;;;;;;;;7.77;43.36;93544.88;2066183;69;20050;-77
2022/03/25 07:38:37;;;;;;;;;;;;;;;8.10;44.78;93545.53;2055814;70;20106;-75
2022/03/25 07:41:03;;;;;;;;;;;;;;;8.35;40.43;93543.44;2068853;69;20150;-77
2022/03/25 07:43:30;;;;;;;;;;;;;;;8.94;43.25;93538.34;2056043;69;20050;-75
2022/03/25 07:45:55;;;;;;;;;;;;;;;9.34;40.39;93540.78;2068764;69;20109;-77
2022/03/25 07:48:21;;;;;;;;;;;;;;;9.75;42.43;93536.25;2056056;70;20491;-78
2022/03/25 07:50:46;;;;;;;;;;;;;;;10.15;40.77;93537.88;2068877;69;20578;-77
2022/03/25 07:53:12;;;;;;;;;;;;;;;10.22;40.39;93541.88;2055955;70;20538;-78
2022/03/25 07:55:37;;;;;;;;;;;;;;;10.86;38.96;93542.44;2068866;69;20562;-78
2022/03/25 07:58:03;;;;;;;;;;;;;;;10.57;38.90;93545.22;2068836;69;20133;-78
2022/03/25 08:00:29;;;;;;;;;;;;;;;11.04;37.93;93537.38;2055702;69;20062;-78
2022/03/25 08:02:55;;;;;;;;;;;;;;;11.67;37.25;93542.59;2068921;69;20074;-80
2022/03/25 08:05:21;;;;;;;;;;;;;;;11.98;36.91;93544.72;2055813;70;20151;-78
2022/03/25 08:07:52;;;;;;;;;;;;;;;11.89;35.75;93540.59;2055829;70;20093;-76
2022/03/25 08:10:19;;;;;;;;;;;;;;;13.22;32.81;93543.78;2055814;70;20081;-76
2022/03/25 08:12:44;;;;;;;;;;;;;;;13.76;32.36;93542.22;2055761;70;20052;-75
2022/03/25 08:15:10;;;;;;;;;;;;;;;13.50;33.05;93546.97;2068711;69;20046;-77
2022/03/25 08:17:46;;;;;;;;;;;;;;;14.31;32.10;93537.09;2055689;70;20054;-75
2022/03/25 08:20:12;;;;;;;;;;;;;;;13.45;31.31;93541.03;2065888;69;20066;-75
2022/03/25 08:22:37;;;;;;;;;;;;;;;13.85;33.02;93532.88;2055685;70;20088;-75
2022/03/25 08:27:50;;;;;;;;;;;;;;;14.52;30.60;93530.56;2056415;70;20058;-74
2022/03/25 08:30:15;;;;;;;;;;;;;;;15.05;30.52;93533.66;2068651;69;20145;-74
2022/03/25 08:32:41;;;;;;;;;;;;;;;14.72;30.30;93528.94;2068808;69;20149;-75
2022/03/25 08:35:07;;;;;;;;;;;;;;;14.74;28.11;93521.28;2068727;69;20129;-76
2022/03/25 08:37:32;;;;;;;;;;;;;;;15.09;29.87;93520.44;2068734;69;20046;-75
2022/03/25 08:39:58;;;;;;;;;;;;;;;16.06;28.91;93523.66;2055729;69;20169;-74
2022/03/25 08:42:23;;;;;;;;;;;;;;;16.32;28.49;93522.22;2068780;69;20417;-74
2022/03/25 08:44:50;;;;;;;;;;;;;;;16.06;29.09;93517.97;2065890;69;20051;-75
2022/03/25 08:47:16;;;;;;;;;;;;;;;16.31;26.82;93519.97;2055745;70;20153;-74
2022/03/25 08:49:41;;;;;;;;;;;;;;;16.36;27.83;93525.28;2055838;70;20146;-74
2022/03/25 08:52:07;;;;;;;;;;;;;;;17.57;27.18;93514.97;2055697;70;20085;-74
2022/03/25 08:54:32;;;;;;;;;;;;;;;17.12;27.25;93512.78;2068722;69;20132;-73
2022/03/25 08:56:58;;;;;;;;;;;;;;;17.57;27.51;93511.38;2068625;69;20068;-73
2022/03/25 08:59:23;;;;;;;;;;;;;;;17.01;26.49;93513.66;2055515;69;20137;-73
2022/03/25 09:01:49;;;;;;;;;;;;;;;17.02;25.44;93513.03;2055821;70;20140;-73
2022/03/25 09:04:14;;;;;;;;;;;;;;;16.49;26.10;93509.56;2068775;69;20046;-73
2022/03/25 09:06:40;;;;;;;;;;;;;;;17.64;25.87;93502.50;2068611;69;20146;-73
2022/03/25 09:09:05;;;;;;;;;;;;;;;18.29;24.96;93504.78;2055593;70;20098;-73
2022/03/25 09:11:31;;;;;;;;;;;;;;;19.11;24.09;93502.63;2055863;70;20151;-73
2022/03/25 09:13:57;;;;;;;;;;;;;;;18.83;23.73;93502.13;2068537;69;20510;-73
2022/03/25 09:16:23;;;;;;;;;;;;;;;18.48;25.33;93498.50;2068838;69;20483;-74
2022/03/25 09:18:49;;;;;;;;;;;;;;;20.05;22.35;93504.25;2055635;70;20134;-74
2022/03/25 09:21:14;;;;;;;;;;;;;;;21.18;21.66;93504.09;2056019;70;20082;-73
2022/03/25 09:23:40;;;;;;;;;;;;;;;21.49;21.37;93499.41;2055657;70;20052;-74
2022/03/25 09:26:07;;;;;;;;;;;;;;;20.41;22.24;93501.31;2065855;69;20501;-73
2022/03/25 09:28:32;;;;;;;;;;;;;;;20.43;21.62;93499.25;2055594;69;20166;-72
2022/03/25 09:30:58;;;;;;;;;;;;;;;20.77;21.90;93493.34;2055554;70;20577;-73
2022/03/25 09:33:23;;;;;;;;;;;;;;;20.58;22.37;93488.38;2068672;69;20556;-73
2022/03/25 09:35:49;;;;;;;;;;;;;;;21.80;21.41;93484.63;2068631;69;20145;-72
2022/03/25 09:38:14;;;;;;;;;;;;;;;21.03;22.68;93487.81;2055563;70;20074;-73
2022/03/25 09:40:43;;;;;;;;;;;;;;;22.89;19.75;93484.97;2068514;69;20142;-72
2022/03/25 09:43:08;;;;;;;;;;;;;;;20.94;20.90;93483.22;2055524;70;20066;-73
2022/03/25 09:45:35;;;;;;;;;;;;;;;20.37;21.32;93473.31;2055352;70;20054;-73
2022/03/25 09:48:01;;;;;;;;;;;;;;;20.54;21.95;93472.53;2055570;70;20052;-73
2022/03/25 09:50:27;;;;;;;;;;;;;;;21.15;21.62;93478.91;2055591;70;20149;-73
2022/03/25 09:52:53;;;;;;;;;;;;;;;21.47;21.21;93468.56;2055594;70;20058;-74
2022/03/25 09:55:19;;;;;;;;;;;;;;;21.57;21.33;93473.88;2055704;70;20046;-75
2022/03/25 09:57:44;;;;;;;;;;;;;;;21.70;21.76;93469.25;2068578;69;20066;-74
2022/03/25 10:00:17;;;;;;;;;;;;;;;21.82;21.10;93470.38;2055449;69;20470;-76
2022/03/25 10:02:43;;;;;;;;;;;;;;;22.51;21.72;93459.53;2055555;69;20058;-75
2022/03/25 10:05:16;;;;;;;;;;;;;;;22.53;20.84;93460.31;2055528;70;20159;-76
2022/03/25 10:07:49;;;;;;;;;;;;;;;22.23;20.54;93451.56;2055259;70;20050;-74
2022/03/25 10:10:16;;;;;;;;;;;;;;;21.93;20.84;93447.75;2054734;70;20424;-77
2022/03/25 10:12:43;;;;;;;;;;;;;;;22.64;19.76;93452.00;2055086;70;20097;-73
2022/03/25 10:15:12;;;;;;;;;;;;;;;22.31;20.35;93446.09;2054890;70;20121;-73
2022/03/25 10:18:04;;;;;;;;;;;;;;;22.48;20.78;93440.78;2054848;70;20489;-73
2022/03/25 10:20:31;;;;;;;;;;;;;;;21.71;20.18;93442.81;2054504;69;20054;-73
2022/03/25 10:22:59;;;;;;;;;;;;;;;23.37;19.30;93439.59;2054822;70;20573;-74
2022/03/25 10:25:40;;;;;;;;;;;;;;;23.05;19.58;93433.75;2055103;70;20057;-74
2022/03/25 10:28:27;;;;;;;;;;;;;;;22.43;20.16;93428.47;2067576;69;20158;-74
2022/03/25 10:30:54;;;;;;;;;;;;;;;23.12;19.41;93418.13;2067617;69;20051;-73
2022/03/25 10:33:21;;;;;;;;;;;;;;;23.39;18.84;93415.91;2067870;69;20536;-74
2022/03/25 10:36:09;;;;;;;;;;;;;;;23.30;19.39;93415.72;2054767;70;20061;-74
2022/03/25 10:38:41;;;;;;;;;;;;;;;22.72;19.19;93412.03;2067706;69;20097;-73
2022/03/25 10:41:07;;;;;;;;;;;;;;;24.04;18.32;93406.66;2055263;70;20066;-73
2022/03/25 10:43:32;;;;;;;;;;;;;;;23.88;17.70;93408.47;2055161;70;20046;-74
2022/03/25 10:45:58;;;;;;;;;;;;;;;23.17;18.02;93404.59;2068211;69;20092;-73
2022/03/25 10:48:24;;;;;;;;;;;;;;;25.47;17.78;93406.53;2055360;69;20050;-74
2022/03/25 10:50:56;;;;;;;;;;;;;;;26.45;17.27;93405.13;2055354;70;20047;-75
2022/03/25 10:53:22;;;;;;;;;;;;;;;24.82;17.99;93400.34;2055384;69;20106;-75
2022/03/25 10:55:55;;;;;;;;;;;;;;;26.46;16.99;93397.91;2068552;69;20137;-74
2022/03/25 10:58:20;;;;;;;;;;;;;;;24.94;17.64;93391.22;2068504;69;20054;-75
2022/03/25 11:00:46;;;;;;;;;;;;;;;25.65;15.47;93388.78;2068222;69;20059;-73
2022/03/25 11:03:18;;;;;;;;;;;;;;;27.18;15.03;93387.88;2055382;70;20180;-74
2022/03/25 11:05:44;;;;;;;;;;;;;;;27.96;15.24;93389.25;2055369;70;20054;-75
2022/03/25 11:08:10;;;;;;;;;;;;;;;30.25;13.32;93395.63;2068131;69;20046;-74
2022/03/25 11:10:35;;;;;;;;;;;;;;;31.67;12.98;93391.31;2055308;70;20065;-73
2022/03/25 11:13:02;;;;;;;;;;;;;;;31.69;12.38;93391.28;2055640;69;20081;-73
2022/03/25 11:15:30;;;;;;;;;;;;;;;32.64;12.24;93389.69;2055312;70;20141;-75
2022/03/25 11:17:55;;;;;;;;;;;;;;;34.53;11.40;93387.63;2055266;70;20074;-74
2022/03/25 11:20:24;;;;;;;;;;;;;;;33.46;11.14;93374.06;2055229;69;20050;-75
2022/03/25 11:23:05;;;;;;;;;;;;;;;33.95;11.79;93373.31;2055569;70;20070;-76
2022/03/25 11:25:34;;;;;;;;;;;;;;;35.37;10.87;93381.53;2055120;70;20069;-75
2022/03/25 11:28:01;;;;;;;;;;;;;;;33.62;11.80;93364.31;2055309;70;20412;-74
2022/03/25 11:30:31;;;;;;;;;;;;;;;35.85;10.24;93372.38;2055076;70;20503;-75
2022/03/25 11:32:57;;;;;;;;;;;;;;;35.34;11.09;93353.06;2068451;69;20046;-75
2022/03/25 11:35:24;;;;;;;;;;;;;;;36.18;10.03;93368.66;2055156;69;20378;-77
2022/03/25 11:38:09;;;;;;;;;;;;;;;37.91;9.86;93357.81;2068276;69;20046;-75
2022/03/25 11:40:35;;;;;;;;;;;;;;;36.09;10.35;93351.28;2063598;69;20527;-76
2022/03/25 11:43:11;;;;;;;;;;;;;;;35.86;10.01;93356.25;2055064;69;20058;-75
2022/03/25 11:45:37;;;;;;;;;;;;;;;35.96;9.76;93344.28;2054980;70;20137;-75
2022/03/25 11:48:06;;;;;;;;;;;;;;;35.46;10.02;93334.47;2055109;70;20146;-74
2022/03/25 11:50:33;;;;;;;;;;;;;;;34.27;10.36;93336.97;2068278;69;20107;-75
2022/03/25 11:53:19;;;;;;;;;;;;;;;34.79;9.80;93325.00;2068077;69;20133;-73
2022/03/25 11:55:51;;;;;;;;;;;;;;;36.22;9.94;93328.22;2055067;69;20062;-73
2022/03/25 11:58:16;;;;;;;;;;;;;;;34.81;9.66;93322.00;2068074;69;20070;-74
2022/03/25 12:00:42;;;;;;;;;;;;;;;32.49;11.76;93309.75;2068461;69;20050;-78
2022/03/25 12:03:08;;;;;;;;;;;;;;;33.19;11.03;93308.81;2055437;70;20047;-81
2022/03/25 12:05:34;;;;;;;;;;;;;;;35.11;9.60;93318.44;2068261;69;20223;-75
2022/03/25 12:08:18;;;;;;;;;;;;;;;34.89;9.19;93304.28;2055266;70;20487;-74
2022/03/25 12:10:44;;;;;;;;;;;;;;;33.92;10.03;93304.72;2068164;69;20827;-74
2022/03/25 12:13:09;;;;;;;;;;;;;;;34.13;10.19;93294.13;2055227;69;20054;-73
2022/03/25 12:15:42;;;;;;;;;;;;;;;32.88;10.96;93298.28;2055185;70;20057;-76
2022/03/25 12:18:26;;;;;;;;;;;;;;;36.13;9.16;93291.84;2055323;69;20437;-78
2022/03/25 12:20:51;;;;;;;;;;;;;;;36.53;9.07;93292.25;2055363;70;20066;-76
2022/03/25 12:23:17;;;;;;;;;;;;;;;33.92;9.56;93287.19;2055435;70;20054;-74
2022/03/25 12:25:44;;;;;;;;;;;;;;;36.46;10.15;93282.91;2068109;69;20161;-74
2022/03/25 12:28:09;;;;;;;;;;;;;;;36.45;9.79;93281.47;2055241;69;20122;-79
2022/03/25 12:30:38;;;;;;;;;;;;;;;35.31;10.12;93279.22;2067981;69;20063;-79
2022/03/25 12:33:10;;;;;;;;;;;;;;;33.66;10.48;93281.81;2055023;70;20062;-75
2022/03/25 12:35:36;;;;;;;;;;;;;;;32.19;11.21;93269.28;2055043;70;20071;-79
2022/03/25 12:38:16;;;;;;;;;;;;;;;33.48;10.71;93265.34;2055098;70;20181;-79
2022/03/25 12:40:43;;;;;;;;;;;;;;;33.39;11.12;93255.97;2068185;69;20129;-78
2022/03/25 12:43:11;;;;;;;;;;;;;;;32.74;10.94;93256.94;2068211;69;20585;-78
2022/03/25 12:45:44;;;;;;;;;;;;;;;35.46;10.10;93262.06;2055065;70;20867;-79
2022/03/25 12:48:17;;;;;;;;;;;;;;;35.42;10.71;93265.06;2055143;70;20149;-75
2022/03/25 12:50:46;;;;;;;;;;;;;;;37.07;8.66;93263.53;2068024;69;20066;-75
2022/03/25 12:53:12;;;;;;;;;;;;;;;38.82;8.88;93265.69;2067983;69;20074;-76